Time;durP1;ratioP1;P1;durP2;ratioP2;P2;SDS_P1;SDS_P2;PMS_P1;PMS_P2;Temp;Humidity;BMP_temperature;BMP_pressure;BME280_temperature;BME280_humidity;BME280_pressure;Samples;Min_cycle;Max_cycle;Signal;HPM_P1;HPM_P2
2022/04/14 00:01:45;;;;;;;51.47;30.42;;;204.90;2124.80;;;;;;5030135;28;20080;-54
2022/04/14 00:04:10;;;;;;;35.22;18.05;;;204.90;2150.40;;;;;;5030321;28;20021;-54
2022/04/14 00:06:36;;;;;;;28.58;16.70;;;204.80;2150.40;;;;;;5030361;28;20088;-55
2022/04/14 00:09:02;;;;;;;37.45;19.60;;;204.80;2176.00;;;;;;5030019;28;20353;-56
2022/04/14 00:11:28;;;;;;;31.25;16.60;;;204.80;2150.40;;;;;;5030023;28;20033;-55
2022/04/14 00:13:55;;;;;;;50.33;27.75;;;204.80;2150.40;;;;;;5029980;28;20027;-55
2022/04/14 00:16:21;;;;;;;55.53;30.95;;;204.90;2176.00;;;;;;5030231;28;20243;-55
2022/04/14 00:18:46;;;;;;;66.65;40.13;;;204.90;2124.80;;;;;;5030118;28;20140;-55
2022/04/14 00:21:12;;;;;;;106.05;56.92;;;204.90;2099.20;;;;;;5030029;28;20018;-54
2022/04/14 00:23:38;;;;;;;44.83;22.48;;;204.90;2099.20;;;;;;5030130;28;20025;-55
2022/04/14 00:26:04;;;;;;;27.70;15.73;;;204.90;2073.60;;;;;;5029799;28;20049;-55
2022/04/14 00:28:29;;;;;;;43.00;22.45;;;204.80;2073.60;;;;;;5029738;28;20380;-55
2022/04/14 00:30:55;;;;;;;22.75;12.93;;;204.80;2048.00;;;;;;5029535;28;20056;-55
2022/04/14 00:33:21;;;;;;;16.00;9.30;;;204.90;1996.80;;;;;;5029262;28;20033;-56
2022/04/14 00:35:47;;;;;;;17.77;10.25;;;204.90;1996.80;;;;;;5029628;28;20025;-55
2022/04/14 00:38:12;;;;;;;11.45;7.38;;;204.80;2022.40;;;;;;5029577;28;20021;-54
2022/04/14 00:40:38;;;;;;;11.73;7.88;;;204.80;2099.20;;;;;;5029596;28;20059;-55
2022/04/14 00:43:04;;;;;;;15.63;10.23;;;180.10;2124.80;;;;;;5029284;28;20025;-55
2022/04/14 00:45:30;;;;;;;14.13;8.70;;;180.00;2252.80;;;;;;5029506;28;20064;-55
2022/04/14 00:47:55;;;;;;;13.35;7.97;;;179.80;2252.80;;;;;;5029496;28;20539;-55
2022/04/14 00:50:21;;;;;;;12.07;7.47;;;179.70;2252.80;;;;;;5029216;28;20049;-55
2022/04/14 00:52:47;;;;;;;14.70;9.35;;;179.80;2252.80;;;;;;5029507;28;20033;-55
2022/04/14 00:55:14;;;;;;;38.53;21.92;;;179.80;2252.80;;;;;;5029184;28;20047;-56
2022/04/14 00:57:40;;;;;;;27.50;16.02;;;179.70;2252.80;;;;;;5029721;28;20025;-55
2022/04/14 01:00:07;;;;;;;97.70;52.05;;;179.80;2252.80;;;;;;5028712;28;20014;-55
2022/04/14 01:02:33;;;;;;;82.78;40.13;;;179.90;2252.80;;;;;;5026423;28;20026;-56
2022/04/14 01:04:59;;;;;;;30.58;17.95;;;179.80;2252.80;;;;;;5029094;28;20076;-55
2022/04/14 01:07:26;;;;;;;17.05;11.65;;;179.80;2252.80;;;;;;5029451;28;20048;-55
2022/04/14 01:09:53;;;;;;;13.68;9.10;;;179.70;2252.80;;;;;;5029466;28;20021;-54
2022/04/14 01:12:19;;;;;;;12.07;8.52;;;179.60;2252.80;;;;;;5029803;28;20037;-55
2022/04/14 01:14:45;;;;;;;18.25;11.25;;;179.60;2252.80;;;;;;5029466;28;20384;-56
2022/04/14 01:17:11;;;;;;;14.05;9.27;;;179.60;2252.80;;;;;;5029577;28;20091;-56
2022/04/14 01:19:38;;;;;;;15.93;9.85;;;179.60;2252.80;;;;;;5029380;28;20479;-55
2022/04/14 01:22:09;;;;;;;13.43;8.80;;;179.60;2252.80;;;;;;5029442;28;20033;-55
2022/04/14 01:24:35;;;;;;;13.20;8.05;;;179.50;2252.80;;;;;;5029140;28;20029;-56
2022/04/14 01:27:01;;;;;;;15.70;8.50;;;179.40;2252.80;;;;;;5029276;28;20029;-56
2022/04/14 01:29:28;;;;;;;18.50;9.40;;;179.30;2252.80;;;;;;5029437;28;20029;-56
2022/04/14 01:31:56;;;;;;;16.23;8.85;;;179.30;2252.80;;;;;;5029167;28;20480;-55
2022/04/14 01:34:22;;;;;;;14.57;9.20;;;179.30;2252.80;;;;;;5028772;28;20068;-55
2022/04/14 01:36:48;;;;;;;16.40;9.82;;;179.30;2252.80;;;;;;5029569;28;20042;-55
2022/04/14 01:39:14;;;;;;;25.50;13.52;;;154.50;2252.80;;;;;;5028993;28;20029;-56
2022/04/14 01:41:41;;;;;;;35.75;21.30;;;179.20;2252.80;;;;;;5029248;28;20033;-55
2022/04/14 01:44:08;;;;;;;42.00;25.98;;;154.50;2252.80;;;;;;5029279;28;20032;-54
2022/04/14 01:46:34;;;;;;;58.83;32.15;;;179.20;2252.80;;;;;;5029241;28;20034;-56
2022/04/14 01:49:01;;;;;;;74.55;43.63;;;179.30;2252.80;;;;;;5029318;28;20088;-55
2022/04/14 01:51:30;;;;;;;51.95;28.70;;;179.20;2252.80;;;;;;5029208;28;20036;-55
2022/04/14 01:53:56;;;;;;;22.27;14.82;;;179.30;2252.80;;;;;;5029149;28;20037;-55
2022/04/14 01:56:22;;;;;;;28.60;16.50;;;179.20;2252.80;;;;;;5029056;28;20041;-55
2022/04/14 01:58:49;;;;;;;43.58;24.15;;;179.20;2252.80;;;;;;5029124;28;20021;-55
2022/04/14 02:01:15;;;;;;;49.50;27.00;;;179.20;2252.80;;;;;;5028731;28;20026;-55
2022/04/14 02:03:41;;;;;;;34.80;18.02;;;179.30;2252.80;;;;;;5029181;28;20100;-56
2022/04/14 02:06:06;;;;;;;24.85;14.65;;;179.30;2252.80;;;;;;5029023;28;20109;-55
2022/04/14 02:08:32;;;;;;;16.55;8.32;;;179.30;2252.80;;;;;;5028837;28;20038;-56
2022/04/14 02:10:58;;;;;;;14.27;7.25;;;179.20;2252.80;;;;;;5031668;28;20090;-55
2022/04/14 02:13:23;;;;;;;16.90;8.25;;;154.50;2252.80;;;;;;5032815;28;20380;-56
2022/04/14 02:15:49;;;;;;;15.85;9.38;;;154.50;2252.80;;;;;;5033043;28;20487;-55
2022/04/14 02:18:15;;;;;;;23.88;12.90;;;154.50;2252.80;;;;;;5032611;28;20033;-56
2022/04/14 02:20:41;;;;;;;15.00;9.18;;;154.50;2252.80;;;;;;5032934;28;20036;-55
2022/04/14 02:23:06;;;;;;;15.18;8.45;;;154.50;2252.80;;;;;;5032580;28;20026;-55
2022/04/14 02:25:32;;;;;;;10.05;5.93;;;154.40;2252.80;;;;;;5032373;28;20036;-56
2022/04/14 02:27:58;;;;;;;11.55;5.10;;;154.50;2252.80;;;;;;5032841;28;20025;-55
2022/04/14 02:30:24;;;;;;;10.77;5.78;;;154.40;2252.80;;;;;;5032280;28;20030;-55
2022/04/14 02:32:50;;;;;;;11.55;5.72;;;154.40;2252.80;;;;;;5032622;28;20041;-56
2022/04/14 02:35:16;;;;;;;5.95;4.53;;;154.50;2252.80;;;;;;5032233;28;20400;-56
2022/04/14 02:37:41;;;;;;;8.57;4.82;;;154.50;2252.80;;;;;;5032536;28;20030;-55
2022/04/14 02:40:08;;;;;;;12.77;6.07;;;154.40;2252.80;;;;;;5032416;28;20045;-54
2022/04/14 02:42:33;;;;;;;16.48;6.43;;;154.30;2252.80;;;;;;5032288;28;20033;-55
2022/04/14 02:44:59;;;;;;;14.32;6.93;;;154.30;2252.80;;;;;;5032619;28;20030;-56
2022/04/14 02:47:25;;;;;;;10.18;5.28;;;154.30;2252.80;;;;;;5032250;28;20813;-56
2022/04/14 02:49:51;;;;;;;14.38;6.57;;;154.30;2252.80;;;;;;5032115;28;20056;-56
2022/04/14 02:52:17;;;;;;;13.20;6.05;;;154.30;2252.80;;;;;;5031991;28;20472;-56
2022/04/14 02:54:43;;;;;;;14.13;7.93;;;154.30;2252.80;;;;;;5032147;28;20025;-56
2022/04/14 02:57:09;;;;;;;17.98;7.25;;;154.30;2252.80;;;;;;5032184;28;20057;-54
2022/04/14 02:59:36;;;;;;;8.13;5.13;;;154.20;2252.80;;;;;;5031740;28;20029;-56
2022/04/14 03:02:03;;;;;;;15.82;7.65;;;154.20;2252.80;;;;;;5031769;28;20029;-55
2022/04/14 03:04:30;;;;;;;20.27;9.88;;;154.10;2252.80;;;;;;5031881;28;20091;-56
2022/04/14 03:06:57;;;;;;;16.67;7.60;;;154.10;2252.80;;;;;;5031988;28;20104;-55
2022/04/14 03:09:23;;;;;;;8.27;4.47;;;154.10;2252.80;;;;;;5031841;28;20092;-56
2022/04/14 03:11:49;;;;;;;11.45;5.07;;;154.00;2252.80;;;;;;5031622;28;20044;-56
2022/04/14 03:14:15;;;;;;;8.80;5.60;;;154.00;2252.80;;;;;;5031693;28;20029;-55
2022/04/14 03:16:41;;;;;;;9.18;5.57;;;154.00;2252.80;;;;;;5032011;28;20025;-56
2022/04/14 03:19:06;;;;;;;5.65;3.92;;;154.00;2252.80;;;;;;5031624;28;20368;-55
2022/04/14 03:21:32;;;;;;;6.88;4.75;;;153.90;2252.80;;;;;;5030666;28;20132;-55
2022/04/14 03:23:58;;;;;;;10.38;5.93;;;154.00;2252.80;;;;;;5031626;28;20242;-55
2022/04/14 03:26:24;;;;;;;11.25;5.90;;;154.00;2252.80;;;;;;5031453;28;20033;-56
2022/04/14 03:28:49;;;;;;;12.30;7.53;;;154.00;2252.80;;;;;;5031458;28;20048;-56
2022/04/14 03:31:15;;;;;;;14.35;8.45;;;154.00;2252.80;;;;;;5031093;28;20033;-56
2022/04/14 03:33:41;;;;;;;15.80;8.93;;;153.90;2252.80;;;;;;5031330;28;20049;-56
2022/04/14 03:36:07;;;;;;;12.43;7.75;;;153.70;2252.80;;;;;;5031352;28;20503;-56
2022/04/14 03:38:33;;;;;;;15.73;8.10;;;153.60;2252.80;;;;;;5031077;28;20112;-56
2022/04/14 03:41:04;;;;;;;13.27;6.35;;;153.60;2252.80;;;;;;5031440;28;20535;-56
2022/04/14 03:43:33;;;;;;;10.63;8.07;;;128.90;2252.80;;;;;;5031202;28;20040;-55
2022/04/14 03:45:59;;;;;;;9.88;6.00;;;128.90;2252.80;;;;;;5031254;28;20160;-55
2022/04/14 03:48:25;;;;;;;10.68;6.65;;;128.70;2252.80;;;;;;5030997;28;20476;-55
2022/04/14 03:50:51;;;;;;;7.95;5.60;;;128.30;2252.80;;;;;;5030752;28;20080;-56
2022/04/14 03:53:18;;;;;;;10.07;5.60;;;128.10;2252.80;;;;;;5031256;28;20079;-56
2022/04/14 03:55:46;;;;;;;8.95;5.57;;;128.20;2252.80;;;;;;5030727;28;20037;-56
2022/04/14 03:58:12;;;;;;;11.32;5.07;;;128.20;2252.80;;;;;;5030754;28;20388;-55
2022/04/14 04:00:38;;;;;;;6.28;4.07;;;128.20;2252.80;;;;;;5031155;28;20037;-55
2022/04/14 04:03:04;;;;;;;6.50;4.18;;;128.40;2252.80;;;;;;5030391;28;20111;-55
2022/04/14 04:05:30;;;;;;;12.23;9.40;;;128.50;2252.80;;;;;;5030844;28;20044;-55
2022/04/14 04:07:55;;;;;;;7.78;4.85;;;128.70;2252.80;;;;;;5030889;28;20033;-55
2022/04/14 04:10:21;;;;;;;8.65;4.47;;;128.90;2252.80;;;;;;5030504;28;20060;-56
2022/04/14 04:12:47;;;;;;;10.80;8.85;;;153.60;2252.80;;;;;;5030750;28;20041;-55
2022/04/14 04:15:13;;;;;;;9.82;8.63;;;153.80;2252.80;;;;;;5030385;28;20033;-55
2022/04/14 04:17:39;;;;;;;10.18;6.97;;;153.90;2252.80;;;;;;5030781;28;20030;-54
2022/04/14 04:20:06;;;;;;;9.00;4.68;;;154.10;2252.80;;;;;;5030382;28;20095;-54
2022/04/14 04:22:33;;;;;;;13.40;6.70;;;154.10;2252.80;;;;;;5030239;28;20082;-55
2022/04/14 04:24:59;;;;;;;14.35;7.10;;;154.20;2252.80;;;;;;5030526;28;20361;-55
2022/04/14 04:27:26;;;;;;;19.88;11.20;;;154.30;2252.80;;;;;;5030096;28;20026;-54
2022/04/14 04:29:51;;;;;;;14.32;9.80;;;154.30;2252.80;;;;;;5030015;28;20038;-56
2022/04/14 04:32:17;;;;;;;19.90;8.38;;;154.50;2252.80;;;;;;5030029;28;20045;-56
2022/04/14 04:34:43;;;;;;;9.63;6.70;;;179.30;2252.80;;;;;;5028945;28;20053;-56
2022/04/14 04:37:09;;;;;;;16.67;7.35;;;179.60;2252.80;;;;;;5030499;28;20103;-55
2022/04/14 04:39:35;;;;;;;9.02;6.57;;;179.70;2252.80;;;;;;5029839;28;20029;-55
2022/04/14 04:42:01;;;;;;;9.13;5.00;;;179.60;2252.80;;;;;;5029691;28;20037;-56
2022/04/14 04:44:26;;;;;;;10.18;5.35;;;179.70;2252.80;;;;;;5030209;28;20026;-55
2022/04/14 04:46:52;;;;;;;11.32;5.13;;;179.70;2252.80;;;;;;5029974;28;20454;-56
2022/04/14 04:49:18;;;;;;;8.93;5.25;;;179.70;2252.80;;;;;;5030145;28;20166;-56
2022/04/14 04:51:44;;;;;;;9.63;6.90;;;179.70;2252.80;;;;;;5029447;28;20041;-56
2022/04/14 04:54:09;;;;;;;10.45;5.90;;;179.80;2252.80;;;;;;5029831;28;20028;-55
2022/04/14 04:56:35;;;;;;;8.82;6.47;;;179.90;2252.80;;;;;;5029583;28;20037;-55
2022/04/14 04:59:02;;;;;;;17.60;6.30;;;179.90;2252.80;;;;;;5029786;28;20384;-56
2022/04/14 05:01:28;;;;;;;16.23;7.28;;;179.90;2252.80;;;;;;5029783;28;20069;-56
2022/04/14 05:03:54;;;;;;;15.00;8.27;;;180.10;2252.80;;;;;;5029491;28;20198;-55
2022/04/14 05:06:20;;;;;;;11.77;8.23;;;256.10;2176.00;;;;;;5029813;28;20037;-54
2022/04/14 05:08:47;;;;;;;11.40;7.35;;;308.10;1792.00;;;;;;5029316;28;20076;-56
2022/04/14 05:11:13;;;;;;;12.80;7.07;;;359.00;1612.80;;;;;;5029520;28;20442;-56
2022/04/14 05:13:39;;;;;;;12.35;7.03;;;409.70;1484.80;;;;;;5029359;28;20036;-54
2022/04/14 05:16:06;;;;;;;13.02;6.20;;;436.00;1356.80;;;;;;5029764;28;20376;-56
2022/04/14 05:18:33;;;;;;;9.85;7.47;;;461.70;1280.00;;;;;;5030313;28;20405;-57
2022/04/14 05:20:58;;;;;;;13.63;7.70;;;486.50;1254.40;;;;;;5029701;28;20025;-55
2022/04/14 05:23:24;;;;;;;9.63;7.03;;;512.10;1203.20;;;;;;5028869;28;20490;-56
2022/04/14 05:25:50;;;;;;;8.48;6.68;;;512.80;1152.00;;;;;;5030106;28;20018;-55
2022/04/14 05:28:16;;;;;;;11.10;7.18;;;538.40;1152.00;;;;;;5029959;28;20057;-57
2022/04/14 05:30:41;;;;;;;12.13;7.18;;;537.90;1152.00;;;;;;5029964;28;20053;-58
2022/04/14 05:33:10;;;;;;;10.32;6.05;;;537.90;1152.00;;;;;;5028927;28;20043;-57
2022/04/14 05:35:38;;;;;;;13.50;8.13;;;537.80;1126.40;;;;;;5028962;28;20569;-55
2022/04/14 05:38:05;;;;;;;10.90;7.88;;;538.50;1100.80;;;;;;5028799;28;20037;-57
2022/04/14 05:40:31;;;;;;;12.85;9.85;;;564.00;1075.20;;;;;;5026303;28;20013;-59
2022/04/14 05:42:56;;;;;;;16.45;12.38;;;614.40;1024.00;;;;;;5028896;28;20499;-56
2022/04/14 05:45:22;;;;;;;9.52;8.18;;;615.30;947.20;;;;;;5028182;28;20018;-57
2022/04/14 05:47:48;;;;;;;17.77;9.57;;;640.10;921.60;;;;;;5030100;28;20021;-61
2022/04/14 05:50:14;;;;;;;13.13;9.85;;;666.50;896.00;;;;;;5029977;28;20032;-61
2022/04/14 05:52:40;;;;;;;11.55;10.50;;;691.40;870.40;;;;;;5030033;28;20041;-60
2022/04/14 05:55:06;;;;;;;13.57;10.65;;;717.20;819.20;;;;;;5030012;28;20079;-61
2022/04/14 05:57:32;;;;;;;9.65;8.65;;;742.40;819.20;;;;;;5029660;28;20392;-62
2022/04/14 05:59:58;;;;;;;8.50;7.57;;;742.80;819.20;;;;;;5029845;28;20029;-60
2022/04/14 06:02:24;;;;;;;11.60;7.57;;;743.20;819.20;;;;;;5029731;28;20028;-61
2022/04/14 06:04:51;;;;;;;10.15;8.77;;;743.10;819.20;;;;;;5029818;28;20041;-63
2022/04/14 06:07:16;;;;;;;11.90;9.38;;;742.60;819.20;;;;;;5029993;28;20017;-61
2022/04/14 06:09:42;;;;;;;35.42;26.05;;;742.90;819.20;;;;;;5029955;28;20036;-62
2022/04/14 06:12:08;;;;;;;34.78;31.20;;;742.60;819.20;;;;;;5030058;28;20034;-61
2022/04/14 06:14:34;;;;;;;48.47;37.83;;;717.10;844.80;;;;;;5029607;28;20049;-62
2022/04/14 06:17:00;;;;;;;71.65;59.38;;;717.50;819.20;;;;;;5029576;28;20069;-61
2022/04/14 06:19:26;;;;;;;48.75;42.75;;;768.10;819.20;;;;;;5029843;28;20380;-61
2022/04/14 06:21:52;;;;;;;49.55;44.25;;;794.00;793.60;;;;;;5029739;28;20033;-61
2022/04/14 06:24:17;;;;;;;41.60;36.80;;;793.70;793.60;;;;;;5029676;28;20095;-62
2022/04/14 06:26:44;;;;;;;40.78;36.53;;;794.20;793.60;;;;;;5029598;28;20072;-61
2022/04/14 06:29:10;;;;;;;45.83;39.15;;;794.50;793.60;;;;;;5029735;28;20022;-62
2022/04/14 06:31:37;;;;;;;46.45;39.22;;;794.40;793.60;;;;;;5029138;28;20492;-61
2022/04/14 06:34:03;;;;;;;43.20;38.70;;;819.60;768.00;;;;;;5029263;28;20084;-61
2022/04/14 06:36:29;;;;;;;47.80;42.25;;;819.40;768.00;;;;;;5029651;28;20069;-60
2022/04/14 06:38:55;;;;;;;41.40;37.00;;;768.80;793.60;;;;;;5029583;28;20042;-60
2022/04/14 06:41:20;;;;;;;40.33;36.00;;;768.70;793.60;;;;;;5029751;28;20551;-61
2022/04/14 06:43:49;;;;;;;40.10;35.95;;;819.40;768.00;;;;;;5029557;28;20078;-61
2022/04/14 06:46:15;;;;;;;38.50;31.88;;;820.10;742.40;;;;;;5029363;28;20033;-60
2022/04/14 06:48:41;;;;;;;34.20;30.73;;;819.30;768.00;;;;;;5029487;28;20101;-60
2022/04/14 06:51:07;;;;;;;29.92;26.80;;;870.50;716.80;;;;;;5029510;28;20179;-61
2022/04/14 06:53:33;;;;;;;24.95;22.35;;;819.30;742.40;;;;;;5028748;28;20029;-61
2022/04/14 06:55:59;;;;;;;25.00;22.30;;;844.80;742.40;;;;;;5029507;28;20482;-61
2022/04/14 06:58:24;;;;;;;22.35;18.45;;;871.00;691.20;;;;;;5032439;28;20104;-61
2022/04/14 07:00:50;;;;;;;21.90;19.88;;;870.60;716.80;;;;;;5032820;28;20464;-61
2022/04/14 07:03:16;;;;;;;19.20;17.35;;;870.90;691.20;;;;;;5032980;28;20083;-61
2022/04/14 07:05:41;;;;;;;26.08;20.05;;;845.30;742.40;;;;;;5033011;28;20033;-62
2022/04/14 07:08:07;;;;;;;26.23;17.90;;;870.50;742.40;;;;;;5033039;28;20026;-62
2022/04/14 07:10:33;;;;;;;19.67;16.20;;;845.50;742.40;;;;;;5032573;28;20030;-60
2022/04/14 07:12:59;;;;;;;29.77;17.17;;;819.40;768.00;;;;;;5031384;28;20080;-61
2022/04/14 07:15:25;;;;;;;30.02;19.33;;;793.90;793.60;;;;;;5032528;28;20021;-61
2022/04/14 07:17:50;;;;;;;19.63;17.20;;;743.30;819.20;;;;;;5032750;28;20026;-61
2022/04/14 07:20:16;;;;;;;26.85;19.88;;;794.50;768.00;;;;;;5032699;28;20025;-60
2022/04/14 07:22:47;;;;;;;28.70;20.27;;;793.60;793.60;;;;;;5032558;28;20060;-61
2022/04/14 07:25:13;;;;;;;25.17;18.45;;;768.10;793.60;;;;;;5032515;28;20022;-61
2022/04/14 07:27:39;;;;;;;31.70;21.92;;;794.20;768.00;;;;;;5032614;28;20468;-62
2022/04/14 07:30:06;;;;;;;23.45;19.27;;;845.70;716.80;;;;;;5031943;28;20030;-61
2022/04/14 07:32:35;;;;;;;19.60;17.70;;;870.40;742.40;;;;;;5032203;28;20128;-61
2022/04/14 07:35:03;;;;;;;22.00;18.38;;;820.00;742.40;;;;;;5032006;28;20049;-61
2022/04/14 07:37:29;;;;;;;16.40;14.68;;;844.80;793.60;;;;;;5032207;28;20037;-61
2022/04/14 07:39:55;;;;;;;15.07;13.57;;;819.90;768.00;;;;;;5032078;28;20137;-61
2022/04/14 07:42:21;;;;;;;19.25;15.52;;;794.50;793.60;;;;;;5032071;28;20061;-61
2022/04/14 07:44:47;;;;;;;17.45;15.15;;;845.00;768.00;;;;;;5032210;28;20045;-61
2022/04/14 07:47:13;;;;;;;20.70;15.55;;;820.00;768.00;;;;;;5032325;28;20030;-61
2022/04/14 07:49:39;;;;;;;16.10;14.43;;;870.90;742.40;;;;;;5032115;28;20554;-61
2022/04/14 07:52:05;;;;;;;16.13;14.73;;;819.70;768.00;;;;;;5031627;28;20077;-61
2022/04/14 07:54:34;;;;;;;16.25;13.77;;;871.10;691.20;;;;;;5032041;28;20532;-61
2022/04/14 07:57:00;;;;;;;16.00;14.20;;;896.00;691.20;;;;;;5032106;28;20030;-61
2022/04/14 07:59:26;;;;;;;17.27;12.60;;;921.90;716.80;;;;;;5031995;28;20072;-61
2022/04/14 08:01:52;;;;;;;13.82;12.50;;;871.10;716.80;;;;;;5031573;28;20480;-61
2022/04/14 08:04:18;;;;;;;11.48;10.35;;;896.00;691.20;;;;;;5031928;28;20032;-62
2022/04/14 08:06:44;;;;;;;13.88;12.55;;;845.40;716.80;;;;;;5031714;28;20396;-61
2022/04/14 08:09:09;;;;;;;15.15;11.32;;;896.00;691.20;;;;;;5031573;28;20388;-61
2022/04/14 08:11:35;;;;;;;14.07;10.57;;;871.10;665.60;;;;;;5031372;28;20030;-62
2022/04/14 08:14:01;;;;;;;11.85;10.73;;;871.00;691.20;;;;;;5031474;28;20024;-61
2022/04/14 08:16:27;;;;;;;34.83;15.75;;;845.70;716.80;;;;;;5031543;28;20838;-61
2022/04/14 08:18:52;;;;;;;14.90;11.25;;;845.50;742.40;;;;;;5031554;28;20026;-62
2022/04/14 08:21:20;;;;;;;14.63;12.55;;;896.70;665.60;;;;;;5031495;28;20036;-62
2022/04/14 08:23:45;;;;;;;43.65;14.77;;;870.90;691.20;;;;;;5031310;28;20021;-62
2022/04/14 08:26:12;;;;;;;26.52;18.85;;;896.40;665.60;;;;;;5031227;28;20033;-61
2022/04/14 08:28:41;;;;;;;11.70;9.75;;;871.30;665.60;;;;;;5031336;28;20033;-61
2022/04/14 08:31:09;;;;;;;18.30;13.73;;;844.80;742.40;;;;;;5030944;28;20436;-62
2022/04/14 08:33:36;;;;;;;11.88;10.38;;;794.50;742.40;;;;;;5030899;28;20100;-61
2022/04/14 08:36:03;;;;;;;16.85;10.35;;;794.50;716.80;;;;;;5031016;28;20033;-61
2022/04/14 08:38:28;;;;;;;13.68;12.38;;;794.20;742.40;;;;;;5030956;28;20045;-60
2022/04/14 08:41:00;;;;;;;17.23;15.60;;;845.20;742.40;;;;;;5030866;28;20060;-61
2022/04/14 08:43:35;;;;;;;9.70;8.80;;;819.90;691.20;;;;;;5030899;28;20112;-61
2022/04/14 08:46:03;;;;;;;12.00;7.93;;;742.40;742.40;;;;;;5030886;28;20388;-60
2022/04/14 08:48:29;;;;;;;9.57;7.85;;;691.20;768.00;;;;;;5030623;28;20034;-60
2022/04/14 08:50:56;;;;;;;12.43;7.22;;;640.70;768.00;;;;;;5030471;28;20426;-60
2022/04/14 08:53:24;;;;;;;13.40;8.88;;;640.60;793.60;;;;;;5030735;28;20042;-60
2022/04/14 08:55:50;;;;;;;10.10;6.60;;;615.30;844.80;;;;;;5030778;28;20075;-60
2022/04/14 08:58:26;;;;;;;9.20;6.75;;;614.90;793.60;;;;;;5030671;28;20033;-60
2022/04/14 09:00:55;;;;;;;10.98;7.05;;;614.80;819.20;;;;;;5030300;28;20448;-60
2022/04/14 09:03:20;;;;;;;12.13;8.40;;;614.60;819.20;;;;;;5030536;28;20064;-60
2022/04/14 09:05:46;;;;;;;11.65;6.53;;;589.50;896.00;;;;;;5030598;28;20053;-60
2022/04/14 09:08:12;;;;;;;9.15;6.22;;;564.10;844.80;;;;;;5030496;28;20480;-60
2022/04/14 09:10:39;;;;;;;16.85;7.15;;;589.10;819.20;;;;;;5030387;28;20053;-60
2022/04/14 09:13:05;;;;;;;8.63;5.68;;;589.00;844.80;;;;;;5030294;28;20076;-60
2022/04/14 09:15:31;;;;;;;8.23;5.43;;;589.40;844.80;;;;;;5030139;28;20444;-60
2022/04/14 09:17:57;;;;;;;10.35;6.47;;;588.80;844.80;;;;;;5030449;28;20029;-60
2022/04/14 09:20:34;;;;;;;13.00;6.75;;;589.00;819.20;;;;;;5029460;28;20376;-60
2022/04/14 09:23:13;;;;;;;10.85;6.30;;;564.10;844.80;;;;;;5030207;28;20075;-60
2022/04/14 09:25:39;;;;;;;9.95;6.05;;;564.10;844.80;;;;;;5030270;28;20029;-60
2022/04/14 09:28:13;;;;;;;8.43;6.20;;;588.80;844.80;;;;;;5030146;28;20045;-60
2022/04/14 09:30:40;;;;;;;10.90;6.95;;;563.90;844.80;;;;;;5030326;28;20112;-60
2022/04/14 09:33:13;;;;;;;7.93;5.50;;;563.60;870.40;;;;;;5030237;28;20368;-60
2022/04/14 09:35:39;;;;;;;10.30;5.15;;;563.90;870.40;;;;;;5030011;28;20042;-60
2022/04/14 09:38:13;;;;;;;9.02;6.38;;;588.80;921.60;;;;;;5029846;28;20400;-60
2022/04/14 09:40:40;;;;;;;9.45;5.70;;;563.70;870.40;;;;;;5030142;28;20461;-60
2022/04/14 09:43:06;;;;;;;10.23;5.70;;;563.80;870.40;;;;;;5030261;28;20559;-59
2022/04/14 09:45:35;;;;;;;10.50;5.65;;;563.60;870.40;;;;;;5029938;28;20100;-60
2022/04/14 09:48:12;;;;;;;8.70;5.45;;;563.90;921.60;;;;;;5030000;28;20024;-60
2022/04/14 09:50:42;;;;;;;6.37;5.30;;;564.00;921.60;;;;;;5029908;28;20021;-60
2022/04/14 09:53:12;;;;;;;11.45;5.47;;;563.90;896.00;;;;;;5030296;28;20408;-59
2022/04/14 09:55:54;;;;;;;7.68;5.45;;;563.30;844.80;;;;;;5029828;28;20022;-60
2022/04/14 09:58:25;;;;;;;9.20;5.47;;;563.20;844.80;;;;;;5030094;28;20018;-60
2022/04/14 10:00:56;;;;;;;8.68;5.35;;;563.30;844.80;;;;;;5029730;28;20404;-59
2022/04/14 10:03:24;;;;;;;10.35;5.07;;;563.60;844.80;;;;;;5029704;28;20040;-59
2022/04/14 10:05:54;;;;;;;8.18;5.30;;;563.90;896.00;;;;;;5030154;28;20121;-59
2022/04/14 10:08:22;;;;;;;8.95;5.97;;;563.90;921.60;;;;;;5030411;28;20032;-59
2022/04/14 10:10:50;;;;;;;9.82;5.93;;;564.00;870.40;;;;;;5030189;28;20045;-60
2022/04/14 10:13:19;;;;;;;14.23;5.22;;;563.90;870.40;;;;;;5029879;28;20029;-59
2022/04/14 10:15:53;;;;;;;12.80;5.72;;;538.30;844.80;;;;;;5028221;28;20037;-59
2022/04/14 10:18:19;;;;;;;11.27;5.63;;;538.40;870.40;;;;;;5029796;28;20380;-60
2022/04/14 10:20:46;;;;;;;10.48;5.25;;;538.10;870.40;;;;;;5029701;28;20037;-60
2022/04/14 10:23:15;;;;;;;11.82;5.68;;;538.40;870.40;;;;;;5028331;28;20365;-60
2022/04/14 10:25:42;;;;;;;10.73;6.07;;;563.30;921.60;;;;;;5029678;28;20473;-60
2022/04/14 10:28:16;;;;;;;11.85;4.82;;;563.70;998.40;;;;;;5029616;28;20079;-57
2022/04/14 10:30:46;;;;;;;12.38;6.22;;;563.40;998.40;;;;;;5030051;28;20037;-60
2022/04/14 10:33:12;;;;;;;8.50;6.03;;;563.60;998.40;;;;;;5033286;28;20065;-59
2022/04/14 10:35:40;;;;;;;10.05;5.88;;;563.60;921.60;;;;;;5032128;28;20443;-59
2022/04/14 10:38:33;;;;;;;12.63;6.85;;;538.40;896.00;;;;;;5033206;28;20034;-59
2022/04/14 10:41:07;;;;;;;12.82;6.43;;;563.30;921.60;;;;;;5033303;28;20025;-60
2022/04/14 10:43:34;;;;;;;10.10;6.40;;;563.20;947.20;;;;;;5033313;28;20030;-59
2022/04/14 10:46:01;;;;;;;9.18;6.38;;;563.20;921.60;;;;;;5033432;28;20033;-59
2022/04/14 10:48:35;;;;;;;12.45;6.75;;;538.30;896.00;;;;;;5033104;28;20057;-59
2022/04/14 10:51:20;;;;;;;8.55;5.93;;;538.40;947.20;;;;;;5032025;28;20034;-59
2022/04/14 10:54:04;;;;;;;8.32;5.63;;;563.20;1024.00;;;;;;5033144;28;20105;-58
2022/04/14 10:56:45;;;;;;;;;;;563.50;947.20;;;;;;5033484;28;20041;-60
2022/04/14 10:59:41;;;;;;;8.50;5.68;;;563.60;1024.00;;;;;;5033299;28;19974;-60
2022/04/14 11:02:07;;;;;;;14.00;6.25;;;563.50;1049.60;;;;;;5032740;28;20053;-60
2022/04/14 11:04:51;;;;;;;11.35;6.30;;;538.50;896.00;;;;;;5032442;28;20083;-59
2022/04/14 11:07:21;;;;;;;8.88;6.00;;;538.40;921.60;;;;;;5033073;28;20025;-59
2022/04/14 11:10:10;;;;;;;7.72;5.97;;;538.40;896.00;;;;;;5032907;28;20059;-58
2022/04/14 11:12:41;;;;;;;8.95;6.15;;;538.50;921.60;;;;;;5031446;28;20033;-59
2022/04/14 11:15:09;;;;;;;9.70;6.00;;;538.20;921.60;;;;;;5032771;28;20057;-59
2022/04/14 11:17:38;;;;;;;12.23;6.80;;;538.20;921.60;;;;;;5032520;28;20032;-59
2022/04/14 11:20:22;;;;;;;10.57;6.00;;;538.10;921.60;;;;;;5032819;28;20036;-59
2022/04/14 11:23:06;;;;;;;7.80;5.82;;;538.20;921.60;;;;;;5032781;28;20075;-61
2022/04/14 11:28:24;;;;;;;12.25;6.45;;;538.40;972.80;;;;;;5032647;28;20032;-60
2022/04/14 11:30:52;;;;;;;10.70;5.43;;;538.50;947.20;;;;;;5032181;28;20029;-60
2022/04/14 11:33:27;;;;;;;7.63;5.07;;;563.40;947.20;;;;;;5032225;28;20092;-61
2022/04/14 11:36:05;;;;;;;7.75;4.85;;;538.50;896.00;;;;;;5032172;28;20045;-61
2022/04/14 11:38:56;;;;;;;11.93;6.47;;;563.30;921.60;;;;;;5032064;28;20053;-61
2022/04/14 11:41:41;;;;;;;8.45;5.88;;;563.60;972.80;;;;;;5032110;28;20439;-61
2022/04/14 11:44:07;;;;;;;16.10;6.43;;;563.70;947.20;;;;;;5031540;28;20018;-59
2022/04/14 11:46:37;;;;;;;11.63;6.07;;;563.70;896.00;;;;;;5032274;28;20060;-59
2022/04/14 11:49:03;;;;;;;10.27;6.72;;;563.60;972.80;;;;;;5032061;28;20022;-60
2022/04/14 11:51:29;;;;;;;9.80;5.50;;;538.40;870.40;;;;;;5031910;28;20057;-59
2022/04/14 11:53:56;;;;;;;8.80;4.60;;;563.20;896.00;;;;;;5031954;28;20061;-59
2022/04/14 11:56:24;;;;;;;8.35;5.30;;;563.50;972.80;;;;;;5031955;28;20017;-60
2022/04/14 11:58:51;;;;;;;7.22;4.65;;;563.60;947.20;;;;;;5032062;28;20119;-59
2022/04/14 12:01:17;;;;;;;9.80;6.18;;;563.30;921.60;;;;;;5031904;28;20033;-60
2022/04/14 12:03:43;;;;;;;10.38;5.60;;;563.30;921.60;;;;;;5031700;28;20068;-60
2022/04/14 12:06:11;;;;;;;7.47;4.45;;;563.20;947.20;;;;;;5032268;28;20037;-60
2022/04/14 12:08:38;;;;;;;9.05;5.32;;;538.50;921.60;;;;;;5031858;28;20380;-59
2022/04/14 12:11:14;;;;;;;12.30;5.60;;;563.30;947.20;;;;;;5031610;28;20036;-60
2022/04/14 12:13:40;;;;;;;13.65;6.15;;;563.50;921.60;;;;;;5031709;28;20133;-59
2022/04/14 12:16:11;;;;;;;8.27;5.88;;;563.60;947.20;;;;;;5031499;28;20022;-60
2022/04/14 12:18:39;;;;;;;10.48;5.72;;;563.60;947.20;;;;;;5031686;28;20030;-59